createdAt,value
2023-02-14T00:01:23.397Z,14.32
2023-02-14T00:03:50.149Z,17.33
2023-02-14T00:06:17.406Z,13.75
2023-02-14T00:08:44.941Z,13.68
2023-02-14T00:11:13.038Z,16.10
2023-02-14T00:13:40.160Z,14.55
2023-02-14T00:16:07.137Z,14.07
2023-02-14T00:19:04.670Z,17.00
2023-02-14T00:21:38.554Z,16.10
2023-02-14T00:24:14.011Z,13.90
2023-02-14T00:26:41.635Z,14.10
2023-02-14T00:29:11.446Z,13.45
2023-02-14T00:31:39.373Z,12.23
2023-02-14T00:34:06.839Z,14.52
2023-02-14T00:36:36.323Z,14.50
2023-02-14T00:39:08.777Z,14.48
2023-02-14T00:41:35.638Z,13.25
2023-02-14T00:44:02.657Z,13.85
2023-02-14T00:46:29.602Z,15.30
2023-02-14T00:48:56.411Z,14.63
2023-02-14T00:51:23.547Z,14.75
2023-02-14T00:53:51.189Z,15.55
2023-02-14T00:56:19.430Z,12.07
2023-02-14T00:58:46.789Z,13.75
2023-02-14T01:01:14.774Z,14.82
2023-02-14T01:03:42.991Z,11.45
2023-02-14T01:06:11.439Z,15.13
2023-02-14T01:08:39.123Z,14.20
2023-02-14T01:11:18.479Z,13.45
2023-02-14T01:13:46.583Z,14.15
2023-02-14T01:16:18.403Z,17.70
2023-02-14T01:18:47.116Z,14.57
2023-02-14T01:21:27.079Z,14.57
2023-02-14T01:23:58.798Z,12.60
2023-02-14T01:26:26.904Z,13.98
2023-02-14T01:28:54.534Z,14.25
2023-02-14T01:31:25.397Z,13.52
2023-02-14T01:33:53.139Z,12.98
2023-02-14T01:36:26.945Z,16.52
2023-02-14T01:38:56.515Z,13.80
2023-02-14T01:41:24.882Z,13.27
2023-02-14T01:43:52.968Z,12.90
2023-02-14T01:46:19.839Z,14.15
2023-02-14T01:48:51.351Z,12.57
2023-02-14T01:51:20.468Z,13.32
2023-02-14T01:53:49.005Z,17.15
2023-02-14T01:56:27.333Z,11.68
2023-02-14T01:59:02.175Z,14.68
2023-02-14T02:01:30.339Z,14.20
2023-02-14T02:04:02.486Z,10.55
2023-02-14T02:06:39.023Z,11.52
2023-02-14T02:09:39.124Z,10.93
2023-02-14T02:12:06.100Z,13.32
2023-02-14T02:14:36.312Z,13.20
2023-02-14T02:17:24.797Z,11.40
2023-02-14T02:20:26.591Z,13.55
2023-02-14T02:23:05.287Z,12.52
2023-02-14T02:25:57.093Z,11.45
2023-02-14T02:28:48.271Z,11.38
2023-02-14T02:31:49.031Z,13.35
2023-02-14T02:34:28.047Z,11.13
2023-02-14T02:37:11.043Z,12.40
2023-02-14T02:40:05.413Z,13.73
2023-02-14T02:42:46.191Z,13.00
2023-02-14T02:45:27.775Z,13.15
2023-02-14T02:48:06.466Z,14.57
2023-02-14T02:51:02.183Z,13.55
2023-02-14T02:53:53.176Z,12.50
2023-02-14T02:56:47.346Z,13.52
2023-02-14T02:59:31.748Z,11.32
2023-02-14T03:04:56.376Z,15.25
2023-02-14T03:07:34.901Z,12.80
2023-02-14T03:10:10.429Z,16.42
2023-02-14T03:12:49.757Z,16.02
2023-02-14T03:15:35.278Z,13.70
2023-02-14T03:18:13.892Z,15.88
2023-02-14T03:20:49.305Z,16.05
2023-02-14T03:23:30.038Z,12.93
2023-02-14T03:26:17.282Z,15.82
2023-02-14T03:29:09.994Z,17.17
2023-02-14T03:31:55.154Z,16.30
2023-02-14T03:34:28.490Z,18.40
2023-02-14T03:37:21.503Z,16.30
2023-02-14T03:40:04.500Z,13.50
2023-02-14T03:42:36.812Z,14.43
2023-02-14T03:45:06.759Z,14.93
2023-02-14T03:47:37.268Z,15.45
2023-02-14T03:50:11.137Z,20.13
2023-02-14T03:52:40.422Z,15.45
2023-02-14T03:55:09.002Z,16.83
2023-02-14T03:58:04.295Z,18.48
2023-02-14T04:00:33.201Z,18.33
2023-02-14T04:03:04.919Z,14.98
2023-02-14T04:05:31.931Z,16.75
2023-02-14T04:07:59.634Z,17.10
2023-02-14T04:10:27.709Z,16.88
2023-02-14T04:12:54.505Z,18.63
2023-02-14T04:15:21.594Z,15.32
2023-02-14T04:18:09.790Z,14.63
2023-02-14T04:20:37.277Z,16.70
2023-02-14T04:23:04.041Z,16.35
2023-02-14T04:25:31.644Z,15.25
2023-02-14T04:28:02.694Z,15.63
2023-02-14T04:30:29.501Z,18.80
2023-02-14T04:32:56.272Z,16.05
2023-02-14T04:35:23.428Z,18.00
2023-02-14T04:37:50.247Z,15.95
2023-02-14T04:40:18.234Z,14.80
2023-02-14T04:42:49.354Z,16.33
2023-02-14T04:45:16.471Z,17.35
2023-02-14T04:47:43.477Z,21.00
2023-02-14T04:50:10.629Z,15.30
2023-02-14T04:52:37.761Z,16.40
2023-02-14T04:55:05.321Z,16.02
2023-02-14T04:57:33.816Z,15.90
2023-02-14T05:00:00.856Z,16.60
2023-02-14T05:02:29.611Z,14.82
2023-02-14T05:04:56.353Z,18.23
2023-02-14T05:07:23.084Z,16.85
2023-02-14T05:09:50.076Z,17.98
2023-02-14T05:12:17.348Z,16.60
2023-02-14T05:14:45.477Z,19.15
2023-02-14T05:17:13.708Z,20.10
2023-02-14T05:19:40.423Z,20.65
2023-02-14T05:22:07.301Z,20.85
2023-02-14T05:24:33.996Z,17.20
2023-02-14T05:27:00.921Z,18.88
2023-02-14T05:29:27.812Z,19.90
2023-02-14T05:31:54.607Z,21.02
2023-02-14T05:34:21.896Z,19.50
2023-02-14T05:36:48.988Z,23.35
2023-02-14T05:39:15.752Z,21.05
2023-02-14T05:41:43.931Z,20.45
2023-02-14T05:44:10.631Z,22.13
2023-02-14T05:46:37.371Z,21.23
2023-02-14T05:49:04.189Z,20.25
2023-02-14T05:51:31.617Z,23.58
2023-02-14T05:54:00.163Z,24.85
2023-02-14T05:56:28.083Z,21.98
2023-02-14T05:58:57.135Z,26.55
2023-02-14T06:01:24.916Z,26.60
2023-02-14T06:03:53.311Z,27.20
2023-02-14T06:06:20.247Z,25.40
2023-02-14T06:08:49.451Z,29.73
2023-02-14T06:11:20.035Z,26.80
2023-02-14T06:13:52.770Z,24.65
2023-02-14T06:16:20.272Z,26.25
2023-02-14T06:18:47.981Z,23.77
2023-02-14T06:21:14.697Z,24.85
2023-02-14T06:23:41.500Z,27.05
2023-02-14T06:26:08.285Z,22.50
2023-02-14T06:28:35.268Z,24.10
2023-02-14T06:31:02.616Z,22.13
2023-02-14T06:33:29.830Z,23.38
2023-02-14T06:35:59.825Z,21.58
2023-02-14T06:38:28.665Z,27.40
2023-02-14T06:41:00.657Z,28.42
2023-02-14T06:43:27.562Z,30.13
2023-02-14T06:45:54.928Z,35.38
2023-02-14T06:48:22.961Z,29.92
2023-02-14T06:50:52.294Z,33.08
2023-02-14T06:53:21.862Z,31.33
2023-02-14T06:55:50.869Z,32.58
2023-02-14T06:58:17.914Z,33.45
2023-02-14T07:00:44.921Z,37.63
2023-02-14T07:03:11.880Z,34.65
2023-02-14T07:05:39.916Z,28.58
2023-02-14T07:08:08.476Z,58.95
2023-02-14T07:10:35.830Z,48.08
2023-02-14T07:13:02.704Z,32.10
2023-02-14T07:15:29.523Z,30.88
2023-02-14T07:17:57.566Z,33.88
2023-02-14T07:20:24.654Z,37.53
2023-02-14T07:22:56.268Z,32.83
2023-02-14T07:25:23.156Z,33.05
2023-02-14T07:27:52.468Z,34.03
2023-02-14T07:30:19.347Z,36.03
2023-02-14T07:32:47.588Z,34.45
2023-02-14T07:35:16.536Z,36.25
2023-02-14T07:37:43.597Z,38.30
2023-02-14T07:40:15.035Z,41.10
2023-02-14T07:42:45.253Z,38.53
2023-02-14T07:45:21.954Z,39.15
2023-02-14T07:47:53.494Z,39.10
2023-02-14T07:50:23.022Z,37.45
2023-02-14T07:52:49.984Z,36.35
2023-02-14T07:55:16.797Z,38.42
2023-02-14T07:57:50.892Z,36.90
2023-02-14T08:02:46.949Z,38.10
2023-02-14T08:05:14.929Z,43.15
2023-02-14T08:07:43.986Z,39.90
2023-02-14T08:10:12.912Z,41.70
2023-02-14T08:12:58.853Z,42.55
2023-02-14T08:15:50.915Z,37.13
2023-02-14T08:18:27.001Z,37.70
2023-02-14T08:20:54.726Z,38.10
2023-02-14T08:23:24.488Z,38.60
2023-02-14T08:25:55.161Z,34.67
2023-02-14T08:28:23.130Z,39.63
2023-02-14T08:30:55.629Z,35.35
2023-02-14T08:33:26.046Z,35.05
2023-02-14T08:36:00.106Z,38.70
2023-02-14T08:40:53.546Z,36.28
2023-02-14T08:43:20.656Z,39.53
2023-02-14T08:45:48.508Z,37.42
2023-02-14T08:48:16.404Z,36.53
2023-02-14T08:50:46.017Z,34.83
2023-02-14T08:53:16.546Z,40.90
2023-02-14T08:55:48.758Z,36.92
2023-02-14T08:58:16.918Z,41.10
2023-02-14T09:00:45.774Z,37.50
2023-02-14T09:03:12.501Z,36.38
2023-02-14T09:05:40.373Z,40.08
2023-02-14T09:08:07.823Z,38.20
2023-02-14T09:10:34.742Z,41.38
2023-02-14T09:13:01.567Z,41.33
2023-02-14T09:15:29.688Z,38.30
2023-02-14T09:17:56.584Z,37.85
2023-02-14T09:20:23.374Z,39.03
2023-02-14T09:22:55.560Z,39.60
2023-02-14T09:25:31.243Z,42.47
2023-02-14T09:28:00.733Z,37.90
2023-02-14T09:30:28.570Z,35.97
2023-02-14T09:33:00.323Z,40.30
2023-02-14T09:35:29.258Z,46.72
2023-02-14T09:38:20.256Z,39.42
2023-02-14T09:40:52.220Z,40.63
2023-02-14T09:43:55.776Z,49.33
2023-02-14T09:46:26.356Z,38.60
2023-02-14T09:48:56.897Z,39.10
2023-02-14T09:54:33.662Z,38.42
2023-02-14T09:57:22.021Z,38.20
2023-02-14T10:00:11.209Z,39.40
2023-02-14T10:03:23.854Z,36.60
2023-02-14T10:06:37.394Z,41.35
2023-02-14T10:09:32.668Z,39.80
2023-02-14T10:12:01.560Z,38.03
2023-02-14T10:14:38.218Z,38.33
2023-02-14T10:17:28.431Z,41.38
2023-02-14T10:20:03.627Z,37.03
2023-02-14T10:22:59.515Z,40.10
2023-02-14T10:25:54.434Z,38.47
2023-02-14T10:28:32.168Z,37.72
2023-02-14T10:31:16.366Z,39.15
2023-02-14T10:34:12.404Z,36.83
2023-02-14T10:36:57.305Z,40.15
2023-02-14T10:39:57.751Z,40.05
2023-02-14T10:42:54.090Z,38.22
2023-02-14T10:45:45.473Z,33.40
2023-02-14T10:48:44.197Z,37.08
2023-02-14T10:51:18.090Z,39.60
2023-02-14T10:54:22.355Z,33.58
2023-02-14T10:57:07.681Z,38.17
2023-02-14T10:59:54.728Z,38.20
2023-02-14T11:05:16.831Z,34.15
2023-02-14T11:07:45.219Z,33.15
2023-02-14T11:10:18.377Z,36.25
2023-02-14T11:12:45.514Z,37.13
2023-02-14T11:18:57.866Z,36.88
2023-02-14T11:21:41.566Z,34.97
2023-02-14T11:24:26.617Z,35.75
2023-02-14T11:27:01.094Z,31.88
2023-02-14T11:35:44.685Z,33.72
2023-02-14T11:38:35.784Z,37.10
2023-02-14T11:41:09.929Z,34.00
2023-02-14T11:46:52.313Z,36.47
2023-02-14T11:49:33.897Z,36.90
2023-02-14T11:52:11.282Z,37.15
2023-02-14T11:54:42.806Z,33.33
2023-02-14T11:57:34.723Z,33.65
2023-02-14T12:00:18.835Z,34.45
2023-02-14T12:05:35.401Z,32.67
2023-02-14T12:08:06.909Z,34.90
2023-02-14T12:10:38.324Z,33.60
2023-02-14T12:13:27.158Z,35.97
2023-02-14T12:15:57.136Z,34.28
2023-02-14T12:18:42.848Z,32.15
2023-02-14T12:21:28.201Z,35.30
2023-02-14T12:24:07.331Z,39.67
2023-02-14T12:27:02.730Z,34.13
2023-02-14T12:29:42.913Z,37.00
2023-02-14T12:32:24.176Z,36.47
2023-02-14T12:34:54.791Z,34.95
2023-02-14T12:37:37.855Z,33.97
2023-02-14T12:40:23.143Z,35.55
2023-02-14T12:43:08.626Z,33.22
2023-02-14T12:52:33.473Z,38.80
2023-02-14T12:55:11.678Z,35.92
2023-02-14T12:57:51.022Z,33.88
2023-02-14T13:00:33.539Z,31.98
2023-02-14T13:03:37.804Z,32.22
2023-02-14T13:06:34.391Z,33.80
2023-02-14T13:12:33.580Z,33.15
2023-02-14T13:15:45.449Z,37.35
2023-02-14T13:18:55.384Z,30.90
2023-02-14T13:21:27.588Z,34.10
2023-02-14T13:24:29.730Z,31.23
2023-02-14T13:27:04.514Z,35.75
2023-02-14T13:29:58.184Z,34.13
2023-02-14T13:32:39.927Z,37.13
2023-02-14T13:35:09.118Z,31.98
2023-02-14T13:37:38.932Z,32.92
2023-02-14T13:40:19.889Z,34.42
2023-02-14T13:43:00.519Z,34.67
2023-02-14T13:45:37.540Z,40.90
2023-02-14T13:51:08.809Z,35.45
2023-02-14T13:53:37.804Z,35.63
2023-02-14T13:56:11.584Z,32.42
2023-02-14T13:58:53.296Z,31.42
2023-02-14T14:01:48.556Z,33.08
2023-02-14T14:04:35.157Z,34.55
2023-02-14T14:07:06.418Z,32.22
2023-02-14T14:09:42.155Z,33.25
2023-02-14T14:12:27.080Z,34.63
2023-02-14T14:15:16.015Z,33.30
2023-02-14T14:18:14.894Z,33.25
2023-02-14T14:21:09.227Z,32.58
2023-02-14T14:26:47.543Z,33.83
2023-02-14T14:29:29.253Z,31.25
2023-02-14T14:32:29.978Z,30.20
2023-02-14T14:35:13.723Z,30.20
2023-02-14T14:37:58.978Z,23.73
2023-02-14T14:40:39.134Z,30.63
2023-02-14T14:43:42.085Z,34.95
2023-02-14T14:49:25.026Z,32.60
2023-02-14T14:52:01.733Z,33.55
2023-02-14T14:57:43.222Z,29.45
2023-02-14T15:00:46.789Z,28.25
2023-02-14T15:09:24.442Z,29.38
2023-02-14T15:15:20.401Z,30.92
2023-02-14T15:20:59.376Z,28.67
2023-02-14T15:23:58.186Z,29.08
2023-02-14T15:26:34.680Z,31.25
2023-02-14T15:34:28.463Z,28.92
2023-02-14T15:36:59.228Z,27.50
2023-02-14T15:39:34.735Z,34.33
2023-02-14T15:54:23.734Z,28.60
2023-02-14T15:56:53.454Z,31.40
2023-02-14T16:20:50.835Z,31.08
2023-02-14T16:27:05.730Z,30.77
2023-02-14T16:41:15.741Z,27.92
2023-02-14T16:55:38.545Z,32.50
2023-02-14T16:58:38.355Z,30.05
2023-02-14T17:01:32.354Z,30.67
2023-02-14T17:03:59.134Z,32.03
2023-02-14T17:06:34.105Z,34.85
2023-02-14T17:09:12.449Z,33.90
2023-02-14T17:14:32.965Z,32.47
2023-02-14T17:17:04.654Z,31.83
2023-02-14T17:19:32.792Z,33.47
2023-02-14T17:22:02.806Z,33.55
2023-02-14T17:24:37.712Z,29.30
2023-02-14T17:27:09.514Z,31.38
2023-02-14T17:29:38.608Z,32.88
2023-02-14T17:32:10.768Z,32.45
2023-02-14T17:34:47.799Z,31.63
2023-02-14T17:37:14.870Z,32.25
2023-02-14T17:39:44.991Z,32.40
2023-02-14T17:42:17.642Z,35.25
2023-02-14T17:44:48.263Z,36.15
2023-02-14T17:47:16.440Z,32.90
2023-02-14T17:49:48.655Z,34.35
2023-02-14T17:52:24.423Z,33.97
2023-02-14T17:54:52.809Z,36.38
2023-02-14T17:57:20.302Z,35.30
2023-02-14T17:59:49.238Z,35.05
2023-02-14T18:02:25.048Z,34.42
2023-02-14T18:04:51.747Z,33.38
2023-02-14T18:07:18.550Z,36.92
2023-02-14T18:09:45.426Z,37.72
2023-02-14T18:12:15.074Z,38.33
2023-02-14T18:14:44.109Z,36.33
2023-02-14T18:17:15.522Z,32.17
2023-02-14T18:19:42.426Z,34.58
2023-02-14T18:22:09.233Z,37.92
2023-02-14T18:24:38.295Z,35.45
2023-02-14T18:27:06.899Z,34.80
2023-02-14T18:32:18.912Z,38.17
2023-02-14T18:37:29.506Z,35.80
2023-02-14T18:39:59.863Z,37.13
2023-02-14T18:42:32.055Z,38.67
2023-02-14T18:53:12.678Z,36.47
2023-02-14T18:55:47.780Z,37.00
2023-02-14T19:00:59.113Z,37.17
2023-02-14T19:03:30.924Z,38.28
2023-02-14T19:05:59.883Z,42.08
2023-02-14T19:08:27.044Z,35.75
2023-02-14T19:10:57.432Z,35.65
2023-02-14T19:13:30.995Z,37.13
2023-02-14T19:16:09.507Z,36.70
2023-02-14T19:18:36.326Z,39.67
2023-02-14T19:21:22.873Z,38.95
2023-02-14T19:24:00.110Z,44.90
2023-02-14T19:26:31.434Z,41.80
2023-02-14T19:29:02.398Z,36.40
2023-02-14T19:31:31.811Z,41.70
2023-02-14T19:33:58.617Z,38.58
2023-02-14T19:36:29.559Z,39.38
2023-02-14T19:38:57.592Z,42.03
2023-02-14T19:41:33.414Z,38.50
2023-02-14T19:44:02.937Z,38.88
2023-02-14T19:46:39.906Z,37.80
2023-02-14T19:49:07.020Z,41.25
2023-02-14T19:51:39.821Z,38.33
2023-02-14T19:54:13.326Z,41.20
2023-02-14T19:56:43.657Z,41.08
2023-02-14T19:59:12.890Z,43.03
2023-02-14T20:01:46.348Z,43.35
2023-02-14T20:04:16.193Z,41.38
2023-02-14T20:06:45.121Z,38.63
2023-02-14T20:09:13.835Z,42.85
2023-02-14T20:11:49.872Z,40.85
2023-02-14T20:14:50.294Z,44.92
2023-02-14T20:17:19.465Z,44.13
2023-02-14T20:19:47.408Z,42.72
2023-02-14T20:22:16.967Z,39.83
2023-02-14T20:24:43.707Z,46.00
2023-02-14T20:27:11.825Z,43.95
2023-02-14T20:29:43.062Z,43.30
2023-02-14T20:32:15.148Z,51.53
2023-02-14T20:34:46.177Z,48.90
2023-02-14T20:37:12.963Z,45.20
2023-02-14T20:39:41.001Z,42.42
2023-02-14T20:42:08.799Z,45.47
2023-02-14T20:44:46.441Z,43.50
2023-02-14T20:47:18.375Z,45.60
2023-02-14T20:52:27.951Z,44.55
2023-02-14T20:54:57.837Z,42.25
2023-02-14T21:00:08.748Z,42.35
2023-02-14T21:05:19.330Z,43.83
2023-02-14T21:07:49.894Z,40.88
2023-02-14T21:10:27.307Z,44.53
2023-02-14T21:12:57.440Z,46.88
2023-02-14T21:15:27.986Z,46.17
2023-02-14T21:17:56.442Z,44.17
2023-02-14T21:25:51.626Z,45.55
2023-02-14T21:28:21.422Z,45.80
2023-02-14T21:30:48.249Z,43.85
2023-02-14T21:33:18.450Z,44.45
2023-02-14T21:35:45.465Z,50.20
2023-02-14T21:38:15.648Z,49.88
2023-02-14T21:40:42.351Z,50.20
2023-02-14T21:43:11.795Z,50.15
2023-02-14T21:45:54.264Z,46.20
2023-02-14T21:48:39.515Z,48.10
2023-02-14T21:51:08.331Z,48.70
2023-02-14T21:53:37.272Z,50.55
2023-02-14T21:56:11.106Z,48.67
2023-02-14T21:58:39.574Z,46.75
2023-02-14T22:01:07.408Z,49.47
2023-02-14T22:03:34.501Z,48.22
2023-02-14T22:06:04.218Z,49.60
2023-02-14T22:08:33.476Z,48.28
2023-02-14T22:11:04.373Z,54.05
2023-02-14T22:13:33.741Z,49.33
2023-02-14T22:16:27.829Z,53.55
2023-02-14T22:18:55.861Z,47.67
2023-02-14T22:21:25.889Z,45.67
2023-02-14T22:23:54.903Z,53.17
2023-02-14T22:26:25.555Z,45.97
2023-02-14T22:28:57.673Z,50.35
2023-02-14T22:31:28.633Z,49.95
2023-02-14T22:33:56.687Z,50.50
2023-02-14T22:36:24.659Z,49.90
2023-02-14T22:38:51.457Z,54.13
2023-02-14T22:41:21.949Z,47.45
2023-02-14T22:43:48.920Z,53.90
2023-02-14T22:46:28.600Z,50.03
2023-02-14T22:48:58.716Z,49.20
2023-02-14T22:51:38.155Z,55.47
2023-02-14T22:54:12.486Z,52.50
2023-02-14T22:56:46.840Z,49.55
2023-02-14T22:59:15.863Z,51.40
2023-02-14T23:01:43.115Z,49.05
2023-02-14T23:04:11.139Z,47.85
2023-02-14T23:06:38.835Z,54.25
2023-02-14T23:09:07.519Z,52.90
2023-02-14T23:11:36.735Z,52.85
2023-02-14T23:14:23.091Z,49.28
2023-02-14T23:17:09.019Z,53.72
2023-02-14T23:19:55.975Z,54.83
2023-02-14T23:22:34.638Z,55.97
2023-02-14T23:25:04.900Z,51.70
2023-02-14T23:27:44.836Z,50.72
2023-02-14T23:30:15.125Z,47.95
2023-02-14T23:32:43.016Z,56.58
2023-02-14T23:35:09.848Z,53.53
2023-02-14T23:37:36.732Z,50.40
2023-02-14T23:40:04.119Z,52.28
2023-02-14T23:42:32.566Z,52.05
2023-02-14T23:45:20.915Z,50.22
2023-02-14T23:47:50.059Z,52.65
2023-02-14T23:50:16.948Z,52.38
2023-02-14T23:52:49.208Z,53.78
2023-02-14T23:55:17.182Z,53.15
2023-02-14T23:57:44.502Z,51.90
